sensor_id;sensor_type;location;lat;lon;timestamp;temperature;humidity
16958;DHT22;8595;52.542;11.974;2023-02-13T00:00:49;8.10;99.90
16958;DHT22;8595;52.542;11.974;2023-02-13T00:03:15;8.10;99.90
16958;DHT22;8595;52.542;11.974;2023-02-13T00:05:42;8.10;99.90
16958;DHT22;8595;52.542;11.974;2023-02-13T00:08:09;8.10;99.90
16958;DHT22;8595;52.542;11.974;2023-02-13T00:10:37;8.00;99.90
16958;DHT22;8595;52.542;11.974;2023-02-13T00:13:03;8.00;99.90
16958;DHT22;8595;52.542;11.974;2023-02-13T00:15:30;8.00;99.90
16958;DHT22;8595;52.542;11.974;2023-02-13T00:17:57;8.00;99.90
16958;DHT22;8595;52.542;11.974;2023-02-13T00:20:24;8.00;99.90
16958;DHT22;8595;52.542;11.974;2023-02-13T00:22:50;8.00;99.90
16958;DHT22;8595;52.542;11.974;2023-02-13T00:25:17;8.00;99.90
16958;DHT22;8595;52.542;11.974;2023-02-13T00:27:45;8.00;99.90
16958;DHT22;8595;52.542;11.974;2023-02-13T00:30:13;8.10;99.90
16958;DHT22;8595;52.542;11.974;2023-02-13T00:32:40;8.10;99.90
16958;DHT22;8595;52.542;11.974;2023-02-13T00:35:07;8.10;99.90
16958;DHT22;8595;52.542;11.974;2023-02-13T00:37:33;8.00;99.90
16958;DHT22;8595;52.542;11.974;2023-02-13T00:40:00;8.00;99.90
16958;DHT22;8595;52.542;11.974;2023-02-13T00:42:27;8.10;99.90
16958;DHT22;8595;52.542;11.974;2023-02-13T00:44:55;8.00;99.90
16958;DHT22;8595;52.542;11.974;2023-02-13T00:47:22;8.00;99.90
16958;DHT22;8595;52.542;11.974;2023-02-13T00:49:48;8.00;99.90
16958;DHT22;8595;52.542;11.974;2023-02-13T00:52:15;8.10;99.90
16958;DHT22;8595;52.542;11.974;2023-02-13T00:54:42;8.00;99.90
16958;DHT22;8595;52.542;11.974;2023-02-13T00:57:08;8.00;99.90
16958;DHT22;8595;52.542;11.974;2023-02-13T00:59:35;8.00;99.90
16958;DHT22;8595;52.542;11.974;2023-02-13T01:02:03;8.00;99.90
16958;DHT22;8595;52.542;11.974;2023-02-13T01:04:30;8.00;99.90
16958;DHT22;8595;52.542;11.974;2023-02-13T01:06:56;8.00;99.90
16958;DHT22;8595;52.542;11.974;2023-02-13T01:09:23;8.10;99.90
16958;DHT22;8595;52.542;11.974;2023-02-13T01:11:50;8.10;99.90
16958;DHT22;8595;52.542;11.974;2023-02-13T01:14:16;8.20;99.90
16958;DHT22;8595;52.542;11.974;2023-02-13T01:16:43;8.20;99.90
16958;DHT22;8595;52.542;11.974;2023-02-13T01:19:11;8.10;99.90
16958;DHT22;8595;52.542;11.974;2023-02-13T01:21:38;8.10;99.90
16958;DHT22;8595;52.542;11.974;2023-02-13T01:24:05;8.10;99.90
16958;DHT22;8595;52.542;11.974;2023-02-13T01:26:32;8.00;99.90
16958;DHT22;8595;52.542;11.974;2023-02-13T01:28:59;8.00;99.90
16958;DHT22;8595;52.542;11.974;2023-02-13T01:31:26;8.00;99.90
16958;DHT22;8595;52.542;11.974;2023-02-13T01:33:55;7.90;99.90
16958;DHT22;8595;52.542;11.974;2023-02-13T01:36:23;7.90;99.90
16958;DHT22;8595;52.542;11.974;2023-02-13T01:38:52;8.00;99.90
16958;DHT22;8595;52.542;11.974;2023-02-13T01:41:20;7.90;99.90
16958;DHT22;8595;52.542;11.974;2023-02-13T01:43:49;8.00;99.90
16958;DHT22;8595;52.542;11.974;2023-02-13T01:46:20;8.00;99.90
16958;DHT22;8595;52.542;11.974;2023-02-13T01:48:48;7.90;99.90
16958;DHT22;8595;52.542;11.974;2023-02-13T01:51:19;8.00;99.90
16958;DHT22;8595;52.542;11.974;2023-02-13T01:56:59;8.10;99.90
16958;DHT22;8595;52.542;11.974;2023-02-13T01:59:30;8.00;99.90
16958;DHT22;8595;52.542;11.974;2023-02-13T02:01:59;8.00;99.90
16958;DHT22;8595;52.542;11.974;2023-02-13T02:04:29;8.00;99.90
16958;DHT22;8595;52.542;11.974;2023-02-13T02:07:00;8.10;99.90
16958;DHT22;8595;52.542;11.974;2023-02-13T02:09:29;8.10;99.90
16958;DHT22;8595;52.542;11.974;2023-02-13T02:12:02;8.10;99.90
16958;DHT22;8595;52.542;11.974;2023-02-13T02:14:31;8.10;99.90
16958;DHT22;8595;52.542;11.974;2023-02-13T02:16:58;8.10;99.90
16958;DHT22;8595;52.542;11.974;2023-02-13T02:19:32;8.10;99.90
16958;DHT22;8595;52.542;11.974;2023-02-13T02:22:24;8.10;99.90
16958;DHT22;8595;52.542;11.974;2023-02-13T02:25:08;8.20;99.90
16958;DHT22;8595;52.542;11.974;2023-02-13T02:28:08;8.20;99.90
16958;DHT22;8595;52.542;11.974;2023-02-13T02:31:00;8.10;99.90
16958;DHT22;8595;52.542;11.974;2023-02-13T02:33:41;8.00;99.90
16958;DHT22;8595;52.542;11.974;2023-02-13T02:36:21;8.00;99.90
16958;DHT22;8595;52.542;11.974;2023-02-13T02:39:04;8.00;99.90
16958;DHT22;8595;52.542;11.974;2023-02-13T02:41:40;8.00;99.90
16958;DHT22;8595;52.542;11.974;2023-02-13T02:44:17;8.10;99.90
16958;DHT22;8595;52.542;11.974;2023-02-13T02:46:55;8.10;99.90
16958;DHT22;8595;52.542;11.974;2023-02-13T02:49:44;8.10;99.90
16958;DHT22;8595;52.542;11.974;2023-02-13T02:52:29;8.10;99.90
16958;DHT22;8595;52.542;11.974;2023-02-13T02:55:03;8.20;99.90
16958;DHT22;8595;52.542;11.974;2023-02-13T02:57:36;8.20;99.90
16958;DHT22;8595;52.542;11.974;2023-02-13T03:00:24;8.20;99.90
16958;DHT22;8595;52.542;11.974;2023-02-13T03:03:11;8.10;99.90
16958;DHT22;8595;52.542;11.974;2023-02-13T03:06:01;8.10;99.90
16958;DHT22;8595;52.542;11.974;2023-02-13T03:08:40;8.10;99.90
16958;DHT22;8595;52.542;11.974;2023-02-13T03:11:26;7.90;99.90
16958;DHT22;8595;52.542;11.974;2023-02-13T03:14:13;7.90;99.90
16958;DHT22;8595;52.542;11.974;2023-02-13T03:16:40;7.90;99.90
16958;DHT22;8595;52.542;11.974;2023-02-13T03:19:33;7.90;99.90
16958;DHT22;8595;52.542;11.974;2023-02-13T03:22:30;7.80;99.90
16958;DHT22;8595;52.542;11.974;2023-02-13T03:25:06;7.80;99.90
16958;DHT22;8595;52.542;11.974;2023-02-13T03:27:40;7.80;99.90
16958;DHT22;8595;52.542;11.974;2023-02-13T03:30:35;7.80;99.90
16958;DHT22;8595;52.542;11.974;2023-02-13T03:33:16;7.70;99.90
16958;DHT22;8595;52.542;11.974;2023-02-13T03:35:48;7.70;99.90
16958;DHT22;8595;52.542;11.974;2023-02-13T03:38:41;7.80;99.90
16958;DHT22;8595;52.542;11.974;2023-02-13T03:41:12;7.90;99.90
16958;DHT22;8595;52.542;11.974;2023-02-13T03:43:52;7.90;99.90
16958;DHT22;8595;52.542;11.974;2023-02-13T03:46:20;7.90;99.90
16958;DHT22;8595;52.542;11.974;2023-02-13T03:48:49;7.90;99.90
16958;DHT22;8595;52.542;11.974;2023-02-13T03:51:37;7.90;99.90
16958;DHT22;8595;52.542;11.974;2023-02-13T03:54:13;7.90;99.90
16958;DHT22;8595;52.542;11.974;2023-02-13T03:56:43;7.80;99.90
16958;DHT22;8595;52.542;11.974;2023-02-13T03:59:31;7.80;99.90
16958;DHT22;8595;52.542;11.974;2023-02-13T04:02:03;7.80;99.90
16958;DHT22;8595;52.542;11.974;2023-02-13T04:04:37;7.70;99.90
16958;DHT22;8595;52.542;11.974;2023-02-13T04:07:07;7.60;99.90
16958;DHT22;8595;52.542;11.974;2023-02-13T04:09:40;7.60;99.90
16958;DHT22;8595;52.542;11.974;2023-02-13T04:12:13;7.50;99.90
16958;DHT22;8595;52.542;11.974;2023-02-13T04:14:47;7.50;99.90
16958;DHT22;8595;52.542;11.974;2023-02-13T04:17:17;7.50;99.90
16958;DHT22;8595;52.542;11.974;2023-02-13T04:19:46;7.50;99.90
16958;DHT22;8595;52.542;11.974;2023-02-13T04:22:13;7.50;99.90
16958;DHT22;8595;52.542;11.974;2023-02-13T04:24:41;7.50;99.90
16958;DHT22;8595;52.542;11.974;2023-02-13T04:27:10;7.60;99.90
16958;DHT22;8595;52.542;11.974;2023-02-13T04:29:38;7.40;99.90
16958;DHT22;8595;52.542;11.974;2023-02-13T04:32:05;7.40;99.90
16958;DHT22;8595;52.542;11.974;2023-02-13T04:34:31;7.40;99.90
16958;DHT22;8595;52.542;11.974;2023-02-13T04:36:58;7.40;99.90
16958;DHT22;8595;52.542;11.974;2023-02-13T04:39:25;7.40;99.90
16958;DHT22;8595;52.542;11.974;2023-02-13T04:41:53;7.50;99.90
16958;DHT22;8595;52.542;11.974;2023-02-13T04:44:19;7.50;99.90
16958;DHT22;8595;52.542;11.974;2023-02-13T04:46:46;7.60;99.90
16958;DHT22;8595;52.542;11.974;2023-02-13T04:49:13;7.60;99.90
16958;DHT22;8595;52.542;11.974;2023-02-13T04:51:40;7.60;99.90
16958;DHT22;8595;52.542;11.974;2023-02-13T04:54:06;7.60;99.90
16958;DHT22;8595;52.542;11.974;2023-02-13T04:56:33;7.60;99.90
16958;DHT22;8595;52.542;11.974;2023-02-13T04:59:01;7.50;99.90
16958;DHT22;8595;52.542;11.974;2023-02-13T05:01:28;7.50;99.90
16958;DHT22;8595;52.542;11.974;2023-02-13T05:03:54;7.50;99.90
16958;DHT22;8595;52.542;11.974;2023-02-13T05:06:21;7.50;99.90
16958;DHT22;8595;52.542;11.974;2023-02-13T05:08:48;7.50;99.90
16958;DHT22;8595;52.542;11.974;2023-02-13T05:11:14;7.40;99.90
16958;DHT22;8595;52.542;11.974;2023-02-13T05:13:41;7.40;99.90
16958;DHT22;8595;52.542;11.974;2023-02-13T05:16:09;7.50;99.90
16958;DHT22;8595;52.542;11.974;2023-02-13T05:18:36;7.40;99.90
16958;DHT22;8595;52.542;11.974;2023-02-13T05:21:02;7.40;99.90
16958;DHT22;8595;52.542;11.974;2023-02-13T05:23:47;7.40;99.90
16958;DHT22;8595;52.542;11.974;2023-02-13T05:26:13;7.40;99.90
16958;DHT22;8595;52.542;11.974;2023-02-13T05:28:40;7.40;99.90
16958;DHT22;8595;52.542;11.974;2023-02-13T05:31:25;7.50;99.90
16958;DHT22;8595;52.542;11.974;2023-02-13T05:33:52;7.40;99.90
16958;DHT22;8595;52.542;11.974;2023-02-13T05:36:19;7.40;99.90
16958;DHT22;8595;52.542;11.974;2023-02-13T05:38:45;7.40;99.90
16958;DHT22;8595;52.542;11.974;2023-02-13T05:41:12;7.40;99.90
16958;DHT22;8595;52.542;11.974;2023-02-13T05:43:39;7.50;99.90
16958;DHT22;8595;52.542;11.974;2023-02-13T05:46:08;7.40;99.90
16958;DHT22;8595;52.542;11.974;2023-02-13T05:48:36;7.40;99.90
16958;DHT22;8595;52.542;11.974;2023-02-13T05:51:03;7.50;99.90
16958;DHT22;8595;52.542;11.974;2023-02-13T05:53:30;7.60;99.90
16958;DHT22;8595;52.542;11.974;2023-02-13T05:55:59;7.50;99.90
16958;DHT22;8595;52.542;11.974;2023-02-13T05:58:26;7.50;99.90
16958;DHT22;8595;52.542;11.974;2023-02-13T06:00:54;7.50;99.90
16958;DHT22;8595;52.542;11.974;2023-02-13T06:03:21;7.50;99.90
16958;DHT22;8595;52.542;11.974;2023-02-13T06:05:49;7.60;99.90
16958;DHT22;8595;52.542;11.974;2023-02-13T06:08:16;7.60;99.90
16958;DHT22;8595;52.542;11.974;2023-02-13T06:10:43;7.50;99.90
16958;DHT22;8595;52.542;11.974;2023-02-13T06:13:09;7.50;99.90
16958;DHT22;8595;52.542;11.974;2023-02-13T06:15:36;7.60;99.90
16958;DHT22;8595;52.542;11.974;2023-02-13T06:18:03;7.60;99.90
16958;DHT22;8595;52.542;11.974;2023-02-13T06:20:29;7.60;99.90
16958;DHT22;8595;52.542;11.974;2023-02-13T06:22:57;7.70;99.90
16958;DHT22;8595;52.542;11.974;2023-02-13T06:25:24;7.60;99.90
16958;DHT22;8595;52.542;11.974;2023-02-13T06:27:51;7.60;99.90
16958;DHT22;8595;52.542;11.974;2023-02-13T06:30:18;7.60;99.90
16958;DHT22;8595;52.542;11.974;2023-02-13T06:32:46;7.60;99.90
16958;DHT22;8595;52.542;11.974;2023-02-13T06:35:13;7.60;99.90
16958;DHT22;8595;52.542;11.974;2023-02-13T06:37:40;7.60;99.90
16958;DHT22;8595;52.542;11.974;2023-02-13T06:40:11;7.60;99.90
16958;DHT22;8595;52.542;11.974;2023-02-13T06:42:38;7.50;99.90
16958;DHT22;8595;52.542;11.974;2023-02-13T06:45:06;7.50;99.90
16958;DHT22;8595;52.542;11.974;2023-02-13T06:47:33;7.40;99.90
16958;DHT22;8595;52.542;11.974;2023-02-13T06:50:00;7.40;99.90
16958;DHT22;8595;52.542;11.974;2023-02-13T06:52:26;7.40;99.90
16958;DHT22;8595;52.542;11.974;2023-02-13T06:54:54;7.40;99.90
16958;DHT22;8595;52.542;11.974;2023-02-13T06:57:25;7.40;99.90
16958;DHT22;8595;52.542;11.974;2023-02-13T06:59:54;7.40;99.90
16958;DHT22;8595;52.542;11.974;2023-02-13T07:02:21;7.40;99.90
16958;DHT22;8595;52.542;11.974;2023-02-13T07:04:47;7.40;99.90
16958;DHT22;8595;52.542;11.974;2023-02-13T07:07:14;7.50;99.90
16958;DHT22;8595;52.542;11.974;2023-02-13T07:09:41;7.50;99.90
16958;DHT22;8595;52.542;11.974;2023-02-13T07:12:07;7.50;99.90
16958;DHT22;8595;52.542;11.974;2023-02-13T07:14:35;7.50;99.90
16958;DHT22;8595;52.542;11.974;2023-02-13T07:17:02;7.50;99.90
16958;DHT22;8595;52.542;11.974;2023-02-13T07:19:29;7.50;99.90
16958;DHT22;8595;52.542;11.974;2023-02-13T07:21:55;7.60;99.90
16958;DHT22;8595;52.542;11.974;2023-02-13T07:24:22;7.60;99.90
16958;DHT22;8595;52.542;11.974;2023-02-13T07:26:49;7.70;99.90
16958;DHT22;8595;52.542;11.974;2023-02-13T07:29:16;7.60;99.90
16958;DHT22;8595;52.542;11.974;2023-02-13T07:31:44;7.70;99.90
16958;DHT22;8595;52.542;11.974;2023-02-13T07:34:11;7.60;99.90
16958;DHT22;8595;52.542;11.974;2023-02-13T07:36:38;7.70;99.90
16958;DHT22;8595;52.542;11.974;2023-02-13T07:39:04;7.70;99.90
16958;DHT22;8595;52.542;11.974;2023-02-13T07:41:31;7.70;99.90
16958;DHT22;8595;52.542;11.974;2023-02-13T07:43:58;7.70;99.90
16958;DHT22;8595;52.542;11.974;2023-02-13T07:46:24;7.60;99.90
16958;DHT22;8595;52.542;11.974;2023-02-13T07:48:52;7.70;99.90
16958;DHT22;8595;52.542;11.974;2023-02-13T07:51:19;7.70;99.90
16958;DHT22;8595;52.542;11.974;2023-02-13T07:53:49;7.80;99.90
16958;DHT22;8595;52.542;11.974;2023-02-13T07:56:16;7.80;99.90
16958;DHT22;8595;52.542;11.974;2023-02-13T07:58:43;7.80;99.90
16958;DHT22;8595;52.542;11.974;2023-02-13T08:01:12;7.80;99.90
16958;DHT22;8595;52.542;11.974;2023-02-13T08:03:38;7.80;99.90
16958;DHT22;8595;52.542;11.974;2023-02-13T08:06:07;7.80;99.90
16958;DHT22;8595;52.542;11.974;2023-02-13T08:08:35;7.80;99.90
16958;DHT22;8595;52.542;11.974;2023-02-13T08:11:05;7.70;99.90
16958;DHT22;8595;52.542;11.974;2023-02-13T08:14:01;7.80;99.90
16958;DHT22;8595;52.542;11.974;2023-02-13T08:16:28;7.90;99.90
16958;DHT22;8595;52.542;11.974;2023-02-13T08:18:54;7.80;99.90
16958;DHT22;8595;52.542;11.974;2023-02-13T08:21:24;7.90;99.90
16958;DHT22;8595;52.542;11.974;2023-02-13T08:23:50;7.90;99.90
16958;DHT22;8595;52.542;11.974;2023-02-13T08:26:17;8.00;99.90
16958;DHT22;8595;52.542;11.974;2023-02-13T08:28:44;8.10;99.90
16958;DHT22;8595;52.542;11.974;2023-02-13T08:31:12;8.10;99.90
16958;DHT22;8595;52.542;11.974;2023-02-13T08:33:38;8.00;99.90
16958;DHT22;8595;52.542;11.974;2023-02-13T08:36:06;8.00;99.90
16958;DHT22;8595;52.542;11.974;2023-02-13T08:38:34;8.00;99.90
16958;DHT22;8595;52.542;11.974;2023-02-13T08:41:01;8.00;99.90
16958;DHT22;8595;52.542;11.974;2023-02-13T08:43:28;8.00;99.90
16958;DHT22;8595;52.542;11.974;2023-02-13T08:45:57;8.00;99.90
16958;DHT22;8595;52.542;11.974;2023-02-13T08:48:24;8.10;99.90
16958;DHT22;8595;52.542;11.974;2023-02-13T08:50:50;8.10;99.90
16958;DHT22;8595;52.542;11.974;2023-02-13T08:53:17;8.20;99.90
16958;DHT22;8595;52.542;11.974;2023-02-13T08:55:51;8.20;99.90
16958;DHT22;8595;52.542;11.974;2023-02-13T08:58:18;8.30;99.90
16958;DHT22;8595;52.542;11.974;2023-02-13T09:00:45;8.40;99.90
16958;DHT22;8595;52.542;11.974;2023-02-13T09:03:12;8.40;99.90
16958;DHT22;8595;52.542;11.974;2023-02-13T09:05:39;8.50;99.90
16958;DHT22;8595;52.542;11.974;2023-02-13T09:08:05;8.40;99.90
16958;DHT22;8595;52.542;11.974;2023-02-13T09:10:33;8.40;99.90
16958;DHT22;8595;52.542;11.974;2023-02-13T09:13:01;8.40;99.90
16958;DHT22;8595;52.542;11.974;2023-02-13T09:15:28;8.50;99.90
16958;DHT22;8595;52.542;11.974;2023-02-13T09:17:55;8.30;99.90
16958;DHT22;8595;52.542;11.974;2023-02-13T09:20:21;8.30;99.90
16958;DHT22;8595;52.542;11.974;2023-02-13T09:22:48;8.30;99.90
16958;DHT22;8595;52.542;11.974;2023-02-13T09:25:15;8.40;99.90
16958;DHT22;8595;52.542;11.974;2023-02-13T09:27:44;8.40;99.90
16958;DHT22;8595;52.542;11.974;2023-02-13T09:30:13;8.40;99.90
16958;DHT22;8595;52.542;11.974;2023-02-13T09:32:47;8.40;99.90
16958;DHT22;8595;52.542;11.974;2023-02-13T09:35:14;8.50;99.90
16958;DHT22;8595;52.542;11.974;2023-02-13T09:37:41;8.60;99.90
16958;DHT22;8595;52.542;11.974;2023-02-13T09:40:16;8.70;99.90
16958;DHT22;8595;52.542;11.974;2023-02-13T09:42:44;8.50;99.90
16958;DHT22;8595;52.542;11.974;2023-02-13T09:45:13;8.60;99.90
16958;DHT22;8595;52.542;11.974;2023-02-13T09:47:42;8.40;99.90
16958;DHT22;8595;52.542;11.974;2023-02-13T09:50:12;8.40;99.90
16958;DHT22;8595;52.542;11.974;2023-02-13T09:52:43;8.50;99.90
16958;DHT22;8595;52.542;11.974;2023-02-13T09:55:14;8.40;99.90
16958;DHT22;8595;52.542;11.974;2023-02-13T09:57:46;8.50;99.90
16958;DHT22;8595;52.542;11.974;2023-02-13T10:00:20;8.50;99.90
16958;DHT22;8595;52.542;11.974;2023-02-13T10:06:07;8.40;99.90
16958;DHT22;8595;52.542;11.974;2023-02-13T10:08:49;8.50;99.90
16958;DHT22;8595;52.542;11.974;2023-02-13T10:11:29;8.50;99.90
16958;DHT22;8595;52.542;11.974;2023-02-13T10:14:09;8.60;99.90
16958;DHT22;8595;52.542;11.974;2023-02-13T10:16:42;8.60;99.90
16958;DHT22;8595;52.542;11.974;2023-02-13T10:19:27;8.60;99.90
16958;DHT22;8595;52.542;11.974;2023-02-13T10:21:58;8.60;99.90
16958;DHT22;8595;52.542;11.974;2023-02-13T10:24:31;8.70;99.90
16958;DHT22;8595;52.542;11.974;2023-02-13T10:27:01;8.70;99.90
16958;DHT22;8595;52.542;11.974;2023-02-13T10:29:36;8.70;99.90
16958;DHT22;8595;52.542;11.974;2023-02-13T10:32:28;8.60;99.90
16958;DHT22;8595;52.542;11.974;2023-02-13T10:35:00;8.60;99.90
16958;DHT22;8595;52.542;11.974;2023-02-13T10:37:28;8.50;99.90
16958;DHT22;8595;52.542;11.974;2023-02-13T10:39:55;8.60;99.90
16958;DHT22;8595;52.542;11.974;2023-02-13T10:42:29;8.60;99.90
16958;DHT22;8595;52.542;11.974;2023-02-13T10:45:08;8.60;99.90
16958;DHT22;8595;52.542;11.974;2023-02-13T10:47:57;8.70;99.90
16958;DHT22;8595;52.542;11.974;2023-02-13T10:50:33;8.70;99.90
16958;DHT22;8595;52.542;11.974;2023-02-13T10:53:10;8.60;99.90
16958;DHT22;8595;52.542;11.974;2023-02-13T10:55:54;8.60;99.90
16958;DHT22;8595;52.542;11.974;2023-02-13T10:58:29;8.60;99.90
16958;DHT22;8595;52.542;11.974;2023-02-13T11:01:03;8.60;99.90
16958;DHT22;8595;52.542;11.974;2023-02-13T11:03:34;8.70;99.90
16958;DHT22;8595;52.542;11.974;2023-02-13T11:06:05;8.70;99.90
16958;DHT22;8595;52.542;11.974;2023-02-13T11:08:34;8.80;99.90
16958;DHT22;8595;52.542;11.974;2023-02-13T11:11:27;8.80;99.90
16958;DHT22;8595;52.542;11.974;2023-02-13T11:14:07;8.80;99.90
16958;DHT22;8595;52.542;11.974;2023-02-13T11:16:40;8.80;99.90
16958;DHT22;8595;52.542;11.974;2023-02-13T11:19:16;8.80;99.90
16958;DHT22;8595;52.542;11.974;2023-02-13T11:21:45;8.90;99.90
16958;DHT22;8595;52.542;11.974;2023-02-13T11:24:20;8.80;99.90
16958;DHT22;8595;52.542;11.974;2023-02-13T11:26:51;8.80;99.90
16958;DHT22;8595;52.542;11.974;2023-02-13T11:29:23;8.90;99.90
16958;DHT22;8595;52.542;11.974;2023-02-13T11:32:02;8.90;99.90
16958;DHT22;8595;52.542;11.974;2023-02-13T11:34:33;9.00;99.90
16958;DHT22;8595;52.542;11.974;2023-02-13T11:37:21;9.00;99.90
16958;DHT22;8595;52.542;11.974;2023-02-13T11:39:49;9.00;99.90
16958;DHT22;8595;52.542;11.974;2023-02-13T11:42:20;9.10;99.90
16958;DHT22;8595;52.542;11.974;2023-02-13T11:44:51;9.00;99.90
16958;DHT22;8595;52.542;11.974;2023-02-13T11:47:37;8.90;99.90
16958;DHT22;8595;52.542;11.974;2023-02-13T11:50:20;9.00;99.90
16958;DHT22;8595;52.542;11.974;2023-02-13T11:52:56;9.00;99.90
16958;DHT22;8595;52.542;11.974;2023-02-13T11:55:28;9.00;99.90
16958;DHT22;8595;52.542;11.974;2023-02-13T11:57:56;8.90;99.90
16958;DHT22;8595;52.542;11.974;2023-02-13T12:00:30;9.00;99.90
16958;DHT22;8595;52.542;11.974;2023-02-13T12:03:02;9.00;99.90
16958;DHT22;8595;52.542;11.974;2023-02-13T12:05:30;9.00;99.90
16958;DHT22;8595;52.542;11.974;2023-02-13T12:07:59;8.90;99.90
16958;DHT22;8595;52.542;11.974;2023-02-13T12:10:27;8.90;99.90
16958;DHT22;8595;52.542;11.974;2023-02-13T12:12:56;8.70;99.90
16958;DHT22;8595;52.542;11.974;2023-02-13T12:15:25;8.80;99.90
16958;DHT22;8595;52.542;11.974;2023-02-13T12:18:08;8.80;99.90
16958;DHT22;8595;52.542;11.974;2023-02-13T12:20:44;8.80;99.90
16958;DHT22;8595;52.542;11.974;2023-02-13T12:23:23;8.70;99.90
16958;DHT22;8595;52.542;11.974;2023-02-13T12:26:13;8.80;99.90
16958;DHT22;8595;52.542;11.974;2023-02-13T12:29:02;8.70;99.90
16958;DHT22;8595;52.542;11.974;2023-02-13T12:32:01;8.70;99.90
16958;DHT22;8595;52.542;11.974;2023-02-13T12:35:03;8.80;99.90
16958;DHT22;8595;52.542;11.974;2023-02-13T12:37:47;8.90;99.90
16958;DHT22;8595;52.542;11.974;2023-02-13T12:40:41;8.90;99.90
16958;DHT22;8595;52.542;11.974;2023-02-13T12:43:24;8.90;99.90
16958;DHT22;8595;52.542;11.974;2023-02-13T12:46:01;9.00;99.90
16958;DHT22;8595;52.542;11.974;2023-02-13T12:48:36;9.10;99.90
16958;DHT22;8595;52.542;11.974;2023-02-13T12:51:19;9.10;99.90
16958;DHT22;8595;52.542;11.974;2023-02-13T12:54:06;9.10;99.90
16958;DHT22;8595;52.542;11.974;2023-02-13T12:56:57;9.00;99.90
16958;DHT22;8595;52.542;11.974;2023-02-13T12:59:33;9.00;99.90
16958;DHT22;8595;52.542;11.974;2023-02-13T13:05:11;8.90;99.90
16958;DHT22;8595;52.542;11.974;2023-02-13T13:07:50;8.90;99.90
16958;DHT22;8595;52.542;11.974;2023-02-13T13:10:32;9.00;99.90
16958;DHT22;8595;52.542;11.974;2023-02-13T13:13:07;9.00;99.90
16958;DHT22;8595;52.542;11.974;2023-02-13T13:15:40;9.10;99.90
16958;DHT22;8595;52.542;11.974;2023-02-13T13:18:22;9.10;99.90
16958;DHT22;8595;52.542;11.974;2023-02-13T13:21:08;9.10;99.90
16958;DHT22;8595;52.542;11.974;2023-02-13T13:23:43;9.00;99.90
16958;DHT22;8595;52.542;11.974;2023-02-13T13:26:19;9.00;99.90
16958;DHT22;8595;52.542;11.974;2023-02-13T13:28:50;9.00;99.90
16958;DHT22;8595;52.542;11.974;2023-02-13T13:31:28;9.00;99.90
16958;DHT22;8595;52.542;11.974;2023-02-13T13:34:04;9.00;99.90
16958;DHT22;8595;52.542;11.974;2023-02-13T13:36:42;9.00;99.90
16958;DHT22;8595;52.542;11.974;2023-02-13T13:39:26;9.00;99.90
16958;DHT22;8595;52.542;11.974;2023-02-13T13:42:07;9.20;99.90
16958;DHT22;8595;52.542;11.974;2023-02-13T13:45:04;9.10;99.90
16958;DHT22;8595;52.542;11.974;2023-02-13T13:47:44;9.00;99.90
16958;DHT22;8595;52.542;11.974;2023-02-13T13:50:19;8.90;99.90
16958;DHT22;8595;52.542;11.974;2023-02-13T13:53:10;8.90;99.90
16958;DHT22;8595;52.542;11.974;2023-02-13T13:56:04;8.90;99.90
16958;DHT22;8595;52.542;11.974;2023-02-13T13:58:37;8.90;99.90
16958;DHT22;8595;52.542;11.974;2023-02-13T14:01:16;8.90;99.90
16958;DHT22;8595;52.542;11.974;2023-02-13T14:03:44;9.00;99.90
16958;DHT22;8595;52.542;11.974;2023-02-13T14:06:13;9.00;99.90
16958;DHT22;8595;52.542;11.974;2023-02-13T14:09:05;9.20;99.90
16958;DHT22;8595;52.542;11.974;2023-02-13T14:11:35;9.20;99.90
16958;DHT22;8595;52.542;11.974;2023-02-13T14:17:49;9.30;99.90
16958;DHT22;8595;52.542;11.974;2023-02-13T14:20:23;9.30;99.90
16958;DHT22;8595;52.542;11.974;2023-02-13T14:22:54;9.10;99.90
16958;DHT22;8595;52.542;11.974;2023-02-13T14:25:23;9.10;99.90
16958;DHT22;8595;52.542;11.974;2023-02-13T14:28:01;9.10;99.90
16958;DHT22;8595;52.542;11.974;2023-02-13T14:30:32;9.00;99.90
16958;DHT22;8595;52.542;11.974;2023-02-13T14:33:00;9.00;99.90
16958;DHT22;8595;52.542;11.974;2023-02-13T14:35:32;8.90;99.90
16958;DHT22;8595;52.542;11.974;2023-02-13T14:38:01;9.00;99.90
16958;DHT22;8595;52.542;11.974;2023-02-13T14:43:46;9.00;99.90
16958;DHT22;8595;52.542;11.974;2023-02-13T14:46:25;8.90;99.90
16958;DHT22;8595;52.542;11.974;2023-02-13T14:48:58;9.00;99.90
16958;DHT22;8595;52.542;11.974;2023-02-13T14:51:32;8.90;99.90
16958;DHT22;8595;52.542;11.974;2023-02-13T14:54:04;8.90;99.90
16958;DHT22;8595;52.542;11.974;2023-02-13T14:56:31;8.90;99.90
16958;DHT22;8595;52.542;11.974;2023-02-13T14:59:05;8.90;99.90
16958;DHT22;8595;52.542;11.974;2023-02-13T15:01:42;8.90;99.90
16958;DHT22;8595;52.542;11.974;2023-02-13T15:04:14;8.80;99.90
16958;DHT22;8595;52.542;11.974;2023-02-13T15:06:43;8.80;99.90
16958;DHT22;8595;52.542;11.974;2023-02-13T15:09:21;8.70;99.90
16958;DHT22;8595;52.542;11.974;2023-02-13T15:11:49;8.70;99.90
16958;DHT22;8595;52.542;11.974;2023-02-13T15:14:18;8.80;99.90
16958;DHT22;8595;52.542;11.974;2023-02-13T15:16:50;8.80;99.90
16958;DHT22;8595;52.542;11.974;2023-02-13T15:19:18;8.80;99.90
16958;DHT22;8595;52.542;11.974;2023-02-13T15:21:52;8.70;99.90
16958;DHT22;8595;52.542;11.974;2023-02-13T15:24:21;8.70;99.90
16958;DHT22;8595;52.542;11.974;2023-02-13T15:26:59;8.70;99.90
16958;DHT22;8595;52.542;11.974;2023-02-13T15:29:26;8.70;99.90
16958;DHT22;8595;52.542;11.974;2023-02-13T15:31:54;8.70;99.90
16958;DHT22;8595;52.542;11.974;2023-02-13T15:34:25;8.60;99.90
16958;DHT22;8595;52.542;11.974;2023-02-13T15:36:52;8.60;99.90
16958;DHT22;8595;52.542;11.974;2023-02-13T15:39:24;8.50;99.90
16958;DHT22;8595;52.542;11.974;2023-02-13T15:41:53;8.50;99.90
16958;DHT22;8595;52.542;11.974;2023-02-13T15:44:24;8.50;99.90
16958;DHT22;8595;52.542;11.974;2023-02-13T15:46:54;8.40;99.90
16958;DHT22;8595;52.542;11.974;2023-02-13T15:49:24;8.40;99.90
16958;DHT22;8595;52.542;11.974;2023-02-13T15:52:00;8.40;99.90
16958;DHT22;8595;52.542;11.974;2023-02-13T15:54:31;8.50;99.90
16958;DHT22;8595;52.542;11.974;2023-02-13T15:57:01;8.50;99.90
16958;DHT22;8595;52.542;11.974;2023-02-13T15:59:32;8.60;99.90
16958;DHT22;8595;52.542;11.974;2023-02-13T16:02:03;8.60;99.90
16958;DHT22;8595;52.542;11.974;2023-02-13T16:04:30;8.50;99.90
16958;DHT22;8595;52.542;11.974;2023-02-13T16:06:58;8.60;99.90
16958;DHT22;8595;52.542;11.974;2023-02-13T16:09:30;8.60;99.90
16958;DHT22;8595;52.542;11.974;2023-02-13T16:12:02;8.60;99.90
16958;DHT22;8595;52.542;11.974;2023-02-13T16:14:31;8.40;99.90
16958;DHT22;8595;52.542;11.974;2023-02-13T16:17:01;8.40;99.90
16958;DHT22;8595;52.542;11.974;2023-02-13T16:19:35;8.30;99.90
16958;DHT22;8595;52.542;11.974;2023-02-13T16:22:17;8.30;99.90
16958;DHT22;8595;52.542;11.974;2023-02-13T16:24:50;8.30;99.90
16958;DHT22;8595;52.542;11.974;2023-02-13T16:27:20;8.30;99.90
16958;DHT22;8595;52.542;11.974;2023-02-13T16:29:51;8.30;99.90
16958;DHT22;8595;52.542;11.974;2023-02-13T16:32:26;8.30;99.90